Time;durP1;ratioP1;P1;durP2;ratioP2;P2;SDS_P1;SDS_P2;PMS_P1;PMS_P2;Temp;Humidity;BMP_temperature;BMP_pressure;BME280_temperature;BME280_humidity;BME280_pressure;Samples;Min_cycle;Max_cycle;Signal;HPM_P1;HPM_P2
2022/11/20 00:01:05;;;;;;;71.23;38.23;;;;;;;-141.97;100.00;47822.78;4951935;28;20181;-89
2022/11/20 00:03:31;;;;;;;77.30;38.47;;;;;;;-141.97;100.00;47757.41;4936695;29;20220;-88
2022/11/20 00:06:01;;;;;;;78.97;39.83;;;;;;;-141.97;100.00;47713.22;4952149;29;20188;-88
2022/11/20 00:08:26;;;;;;;76.23;37.57;;;;;;;-141.97;100.00;47759.34;4936222;29;20699;-89
2022/11/20 00:10:51;;;;;;;60.80;28.43;;;;;;;-141.97;100.00;48013.06;4987923;28;20210;-89
2022/11/20 00:13:17;;;;;;;76.50;37.93;;;;;;;-141.97;100.00;47961.19;5012309;28;20221;-89
2022/11/20 00:15:42;;;;;;;79.03;40.73;;;;;;;-141.97;100.00;47845.84;5034054;28;20179;-88
2022/11/20 00:18:07;;;;;;;87.17;41.37;;;;;;;-141.97;100.00;47982.31;5038343;28;20602;-88
2022/11/20 00:20:33;;;;;;;79.87;39.93;;;;;;;-141.97;100.00;47761.25;5030759;28;20174;-89
2022/11/20 00:22:59;;;;;;;80.80;41.67;;;;;;;-141.97;100.00;47826.63;5012644;28;20163;-89
2022/11/20 00:25:24;;;;;;;80.13;40.67;;;;;;;-141.97;100.00;47980.41;5012610;28;20217;-88
2022/11/20 00:27:50;;;;;;;83.93;41.77;;;;;;;-141.97;100.00;47884.28;5021422;28;20166;-89
2022/11/20 00:30:16;;;;;;;89.23;42.80;;;;;;;-141.97;100.00;47851.59;5032708;28;20182;-87
2022/11/20 00:32:44;;;;;;;87.43;42.60;;;;;;;-141.97;100.00;47909.28;5011544;28;20178;-90
2022/11/20 00:35:10;;;;;;;89.97;42.83;;;;;;;-141.97;100.00;47963.09;4996351;28;20171;-90
2022/11/20 00:37:35;;;;;;;87.50;43.13;;;;;;;-141.97;100.00;47799.72;5001845;28;20170;-89
2022/11/20 00:40:00;;;;;;;84.70;42.93;;;;;;;-141.97;100.00;47830.47;5003387;28;20636;-89
2022/11/20 00:42:26;;;;;;;82.83;42.37;;;;;;;-141.97;100.00;47865.06;5013257;28;20209;-89
2022/11/20 00:44:51;;;;;;;83.50;43.17;;;;;;;-141.97;100.00;47803.56;4994539;28;20194;-90
2022/11/20 00:47:17;;;;;;;89.53;44.37;;;;;;;-141.97;100.00;47986.16;5014777;28;20480;-89
2022/11/20 00:49:42;;;;;;;97.90;47.80;;;;;;;-141.97;100.00;47895.81;5014624;28;20677;-91
2022/11/20 00:52:08;;;;;;;84.13;43.70;;;;;;;-141.97;100.00;47738.19;4996056;28;20216;-89
2022/11/20 00:54:33;;;;;;;84.57;42.00;;;;;;;-141.97;100.00;47742.03;5011327;28;20258;-89
2022/11/20 00:56:58;;;;;;;81.63;42.70;;;;;;;-141.97;100.00;47888.13;4994743;28;20223;-89
2022/11/20 00:59:24;;;;;;;77.90;42.10;;;;;;;-141.97;100.00;47765.09;4994510;28;20178;-89
2022/11/20 01:01:49;;;;;;;79.83;41.33;;;;;;;-141.97;100.00;47817.00;4994397;28;20174;-89
2022/11/20 01:04:15;;;;;;;77.50;40.40;;;;;;;-141.97;100.00;47928.50;4994348;28;20679;-89
2022/11/20 01:06:40;;;;;;;84.43;43.73;;;;;;;-141.97;100.00;47703.59;5011005;28;20166;-90
2022/11/20 01:09:12;;;;;;;85.03;41.67;;;;;;;-141.97;100.00;47868.91;5011805;28;20190;-89
2022/11/20 01:11:41;;;;;;;90.00;43.90;;;;;;;-141.97;100.00;47811.25;4994821;28;20194;-89
2022/11/20 01:14:11;;;;;;;80.03;41.20;;;;;;;-141.97;100.00;47988.09;4991591;28;20254;-90
2022/11/20 01:16:38;;;;;;;83.07;41.60;;;;;;;-141.97;100.00;47895.81;4991431;28;20173;-87
2022/11/20 01:19:06;;;;;;;82.53;40.33;;;;;;;-141.97;100.00;47884.28;4975447;28;20258;-89
2022/11/20 01:21:34;;;;;;;80.13;40.63;;;;;;;-141.97;100.00;47778.56;4976758;28;20668;-89
2022/11/20 01:24:00;;;;;;;81.10;40.67;;;;;;;-141.97;100.00;47876.59;4976532;28;20600;-89
2022/11/20 01:26:29;;;;;;;85.73;42.60;;;;;;;-141.97;100.00;47880.44;4991325;28;20251;-89
2022/11/20 01:28:55;;;;;;;77.83;41.03;;;;;;;-141.97;100.00;47876.59;4975124;28;20222;-90
2022/11/20 01:31:23;;;;;;;67.67;33.67;;;;;;;-141.97;100.00;47768.94;4975011;28;20168;-90
2022/11/20 01:33:51;;;;;;;77.30;39.63;;;;;;;-141.97;100.00;47928.50;4991651;28;20535;-90
2022/11/20 01:36:18;;;;;;;81.50;40.73;;;;;;;-141.97;100.00;47780.47;4976373;28;20243;-90
2022/11/20 01:38:44;;;;;;;81.17;39.53;;;;;;;-141.97;100.00;47803.56;4976461;28;20164;-89
2022/11/20 01:43:20;;;;;;;64.73;32.40;;;;;;;-141.97;100.00;47807.41;4974940;28;20175;-89
2022/11/20 01:43:56;;;;;;;79.43;40.17;;;;;;;-141.97;100.00;47838.16;4976183;28;20188;-89
2022/11/20 01:46:22;;;;;;;75.77;39.83;;;;;;;-141.97;100.00;47745.88;4976092;28;20175;-90
2022/11/20 01:49:17;;;;;;;81.13;41.40;;;;;;;-141.97;100.00;47926.56;4991082;28;20168;-91
2022/11/20 01:51:52;;;;;;;79.67;39.77;;;;;;;-141.97;100.00;47976.56;4978229;28;20164;-89
2022/11/20 01:54:33;;;;;;;89.37;45.60;;;;;;;-141.97;100.00;47990.00;4976946;28;20214;-91
2022/11/20 01:57:00;;;;;;;75.93;40.37;;;;;;;-141.97;100.00;47888.13;4976268;28;20243;-89
2022/11/20 01:59:29;;;;;;;87.03;42.70;;;;;;;-141.97;100.00;47697.84;4976712;28;20639;-89
2022/11/20 02:01:55;;;;;;;82.57;41.70;;;;;;;-141.97;100.00;47934.25;4976201;28;20239;-90
2022/11/20 02:04:22;;;;;;;77.20;40.90;;;;;;;-141.97;100.00;47872.75;4976209;28;20680;-89
2022/11/20 02:07:14;;;;;;;115.90;57.13;;;;;;;-141.97;100.00;47878.53;4975067;28;20214;-88
2022/11/20 02:09:39;;;;;;;77.70;37.97;;;;;;;-141.97;100.00;47868.91;4916493;29;20194;-89
2022/11/20 02:13:42;;;;;;;92.77;45.40;;;;;;;-141.97;100.00;47859.28;4916383;29;20631;-89
2022/11/20 02:14:50;;;;;;;72.10;38.30;;;;;;;-141.97;100.00;47991.94;4913005;29;20230;-89
2022/11/20 02:17:16;;;;;;;64.87;34.43;;;;;;;-141.97;100.00;47888.13;4900622;29;20182;-89
2022/11/20 02:19:41;;;;;;;77.33;38.17;;;;;;;-141.97;100.00;47970.78;4900727;29;20216;-89
2022/11/20 02:22:26;;;;;;;68.37;35.70;;;;;;;-141.97;100.00;47842.00;4905879;29;20194;-88
2022/11/20 02:24:51;;;;;;;66.73;36.67;;;;;;;-141.97;100.00;47847.75;4903767;29;20213;-90
2022/11/20 02:27:18;;;;;;;67.60;36.33;;;;;;;-141.97;100.00;47872.75;4900799;29;20190;-89
2022/11/20 02:30:03;;;;;;;64.73;36.40;;;;;;;-141.97;100.00;47895.81;4900893;29;20272;-89
2022/11/20 02:32:32;;;;;;;68.23;35.03;;;;;;;-141.97;100.00;47872.75;4916058;29;20193;-89
2022/11/20 02:35:05;;;;;;;61.57;34.43;;;;;;;-141.97;100.00;47876.59;4916006;29;20182;-89
2022/11/20 02:37:34;;;;;;;60.37;32.57;;;;;;;-141.97;100.00;47868.91;4916288;29;20193;-89
2022/11/20 02:39:59;;;;;;;61.93;32.43;;;;;;;-141.97;100.00;47990.00;4925207;28;20205;-92
2022/11/20 02:42:25;;;;;;;61.57;33.93;;;;;;;-141.97;100.00;47865.06;4941903;28;20166;-91
2022/11/20 02:44:50;;;;;;;59.50;31.67;;;;;;;-141.97;100.00;47857.38;4909920;29;20308;-89
2022/11/20 02:47:16;;;;;;;57.73;32.13;;;;;;;-141.97;100.00;47851.59;4967305;28;20660;-88
2022/11/20 02:49:41;;;;;;;62.50;32.10;;;;;;;-141.97;100.00;47995.78;4990343;28;20195;-89
2022/11/20 02:52:06;;;;;;;53.07;29.70;;;;;;;-141.97;100.00;47832.38;4975286;28;20632;-88
2022/11/20 02:54:32;;;;;;;52.43;29.47;;;;;;;-141.97;100.00;47842.00;4990247;28;20270;-87
2022/11/20 02:56:57;;;;;;;49.13;29.43;;;;;;;-141.97;100.00;47849.69;4993557;28;20226;-88
2022/11/20 02:59:22;;;;;;;53.43;26.83;;;;;;;-141.97;100.00;47868.91;4994782;28;20182;-88
2022/11/20 03:01:48;;;;;;;51.10;28.53;;;;;;;-141.97;100.00;47907.34;4994117;28;20633;-88
2022/11/20 03:04:13;;;;;;;52.70;28.90;;;;;;;-141.97;100.00;47888.13;4992821;28;20548;-88
2022/11/20 03:06:39;;;;;;;59.50;30.30;;;;;;;-141.97;100.00;47795.88;4993155;28;20691;-88
2022/11/20 03:09:04;;;;;;;54.00;29.43;;;;;;;-141.97;100.00;47715.13;4992952;28;20167;-89
2022/11/20 03:11:29;;;;;;;57.90;33.07;;;;;;;-141.97;100.00;47692.06;4992794;28;20171;-90
2022/11/20 03:13:55;;;;;;;62.90;32.43;;;;;;;-141.97;100.00;47820.84;4994194;28;20254;-88
2022/11/20 03:16:22;;;;;;;57.03;32.20;;;;;;;-141.97;100.00;47882.38;4994697;28;20202;-88
2022/11/20 03:18:48;;;;;;;57.50;32.53;;;;;;;-141.97;100.00;47730.50;4994024;28;20187;-88
2022/11/20 03:21:15;;;;;;;58.73;31.40;;;;;;;-141.97;100.00;47872.75;4992584;28;20684;-88
2022/11/20 03:23:41;;;;;;;57.57;30.63;;;;;;;-141.97;100.00;47792.03;4994929;28;20254;-88
2022/11/20 03:26:24;;;;;;;61.00;32.33;;;;;;;-141.97;100.00;47865.06;5000261;28;20171;-87
2022/11/20 03:28:52;;;;;;;51.63;28.53;;;;;;;-141.97;100.00;47899.66;5012323;28;20160;-88
2022/11/20 03:31:20;;;;;;;71.50;38.10;;;;;;;-141.97;100.00;47734.34;5011654;28;20229;-88
2022/11/20 03:33:45;;;;;;;55.30;28.20;;;;;;;-141.97;100.00;47941.94;4993503;28;20177;-88
2022/11/20 03:36:13;;;;;;;45.50;23.77;;;;;;;-141.97;100.00;47853.53;4992893;28;20250;-88
2022/11/20 03:38:38;;;;;;;45.10;22.80;;;;;;;-141.97;100.00;47792.03;5009770;28;20693;-89
2022/11/20 03:41:08;;;;;;;59.57;33.23;;;;;;;-141.97;100.00;47820.84;4992757;28;20170;-89
2022/11/20 03:43:34;;;;;;;103.13;51.83;;;;;;;-141.97;100.00;47849.69;4992741;28;20171;-88
2022/11/20 03:46:00;;;;;;;74.33;40.83;;;;;;;-141.97;100.00;47765.09;4994965;28;20163;-89
2022/11/20 03:48:26;;;;;;;94.80;45.27;;;;;;;-141.97;100.00;47991.94;4995817;28;20163;-89
2022/11/20 03:50:53;;;;;;;97.60;47.60;;;;;;;-141.97;100.00;47715.13;4995384;28;20152;-89
2022/11/20 03:53:19;;;;;;;75.30;38.17;;;;;;;-141.97;100.00;47965.03;4992857;28;20160;-88
2022/11/20 03:55:44;;;;;;;72.73;36.23;;;;;;;-141.97;100.00;47757.41;5008543;28;20171;-89
2022/11/20 03:58:10;;;;;;;75.50;37.70;;;;;;;-141.97;100.00;47897.75;5010837;28;20699;-88
2022/11/20 04:00:35;;;;;;;74.13;38.57;;;;;;;-141.97;100.00;47753.56;4993824;28;20647;-88
2022/11/20 04:03:02;;;;;;;63.23;34.77;;;;;;;-141.97;100.00;47830.47;4993850;28;20242;-88
2022/11/20 04:05:27;;;;;;;55.00;28.33;;;;;;;-141.97;100.00;47999.63;4993631;28;20188;-89
2022/11/20 04:07:53;;;;;;;44.23;24.10;;;;;;;-141.97;100.00;47922.72;5000124;28;20168;-88
2022/11/20 04:10:19;;;;;;;37.67;22.57;;;;;;;-141.97;100.00;47851.59;5007078;28;20159;-87
2022/11/20 04:12:44;;;;;;;42.53;21.07;;;;;;;-141.97;100.00;47865.06;5006786;28;20160;-89
2022/11/20 04:15:10;;;;;;;38.13;22.10;;;;;;;-141.97;100.00;47803.56;5002694;28;20286;-89
2022/11/20 04:17:35;;;;;;;38.67;19.87;;;;;;;-141.97;100.00;47855.44;4995670;28;20170;-87
2022/11/20 04:20:01;;;;;;;39.73;20.23;;;;;;;-141.97;100.00;47884.28;4997283;28;20183;-87
2022/11/20 04:22:27;;;;;;;42.30;21.70;;;;;;;-141.97;100.00;47780.47;5006263;28;20159;-86
2022/11/20 04:24:52;;;;;;;38.47;19.97;;;;;;;-141.97;100.00;47765.09;5003016;28;20221;-87
2022/11/20 04:27:18;;;;;;;37.10;19.77;;;;;;;-141.97;100.00;47876.59;4996832;28;20175;-88
2022/11/20 04:29:43;;;;;;;38.77;20.23;;;;;;;-141.97;100.00;47934.25;4993341;28;20168;-88
2022/11/20 04:32:09;;;;;;;40.93;21.50;;;;;;;-141.97;100.00;47788.19;4993235;28;20171;-88
2022/11/20 04:34:34;;;;;;;50.57;27.57;;;;;;;-141.97;100.00;47840.06;4991648;28;20541;-88
2022/11/20 04:37:00;;;;;;;39.77;22.50;;;;;;;-141.97;100.00;47817.00;4992905;28;20167;-89
2022/11/20 04:39:26;;;;;;;38.37;21.93;;;;;;;-141.97;100.00;47799.72;4992765;28;20163;-90
2022/11/20 04:42:28;;;;;;;34.83;18.97;;;;;;;-141.97;100.00;47868.91;4992982;28;20246;-89
2022/11/20 04:44:36;;;;;;;34.13;18.07;;;;;;;-141.97;100.00;47878.53;4993091;28;20230;-90
2022/11/20 04:47:02;;;;;;;36.30;16.67;;;;;;;-141.97;100.00;47982.31;4996578;28;20179;-89
2022/11/20 04:49:27;;;;;;;31.03;15.53;;;;;;;-141.97;100.00;47878.53;4998813;28;20171;-89
2022/11/20 04:51:53;;;;;;;30.13;16.30;;;;;;;-141.97;100.00;47888.13;4998235;28;20183;-88
2022/11/20 04:54:20;;;;;;;31.83;15.60;;;;;;;-141.97;100.00;47976.56;4998062;28;20564;-88
2022/11/20 04:56:47;;;;;;;32.43;15.47;;;;;;;-141.97;100.00;47842.00;4997972;28;20261;-88
2022/11/20 04:59:13;;;;;;;32.13;16.00;;;;;;;-141.97;100.00;47895.81;4997728;28;20582;-88
2022/11/20 05:01:38;;;;;;;34.77;16.00;;;;;;;-141.97;100.00;47757.41;5014954;28;20179;-89
2022/11/20 05:04:04;;;;;;;30.40;14.73;;;;;;;-141.97;100.00;47784.34;5013764;28;20283;-87
2022/11/20 05:06:29;;;;;;;27.67;13.77;;;;;;;-141.97;100.00;47976.56;5004418;28;20266;-88
2022/11/20 05:08:55;;;;;;;27.40;15.77;;;;;;;-141.97;100.00;47707.44;5016638;28;20180;-88
2022/11/20 05:11:21;;;;;;;44.47;22.93;;;;;;;-141.97;100.00;47711.28;4980217;28;20247;-89
2022/11/20 05:13:47;;;;;;;24.67;11.87;;;;;;;-141.97;100.00;47865.06;4987778;28;20223;-89
2022/11/20 05:16:18;;;;;;;24.90;10.57;;;;;;;-141.97;100.00;48015.00;4999018;28;20167;-89
2022/11/20 05:18:44;;;;;;;16.87;9.90;;;;;;;-141.97;100.00;47768.94;4981461;28;20174;-89
2022/11/20 05:21:10;;;;;;;16.87;9.43;;;;;;;-141.97;100.00;47874.69;4998748;28;20250;-87
2022/11/20 05:23:37;;;;;;;23.13;11.30;;;;;;;-141.97;100.00;47845.84;4981624;28;20179;-88
2022/11/20 05:26:03;;;;;;;23.00;13.73;;;;;;;-141.97;100.00;47876.59;4998636;28;20167;-88
2022/11/20 05:28:30;;;;;;;38.07;20.77;;;;;;;-141.97;100.00;47915.03;4998640;28;20199;-88
2022/11/20 05:31:03;;;;;;;25.33;11.40;;;;;;;-141.97;100.00;47845.84;4999028;28;20168;-88
2022/11/20 05:33:28;;;;;;;24.27;12.93;;;;;;;-141.97;100.00;47984.25;4998772;28;20170;-87
2022/11/20 05:35:58;;;;;;;23.87;13.73;;;;;;;-141.97;100.00;47755.50;4997386;28;20171;-87
2022/11/20 05:38:23;;;;;;;23.27;12.83;;;;;;;-141.97;100.00;47834.31;4998603;28;20233;-87
2022/11/20 05:40:49;;;;;;;22.53;11.70;;;;;;;-141.97;100.00;47895.81;4998897;28;20172;-87
2022/11/20 05:43:14;;;;;;;23.37;12.37;;;;;;;-141.97;100.00;47907.34;4998408;28;20619;-87
2022/11/20 05:45:39;;;;;;;29.17;13.00;;;;;;;-141.97;100.00;47857.38;4997484;28;20191;-90
2022/11/20 05:48:05;;;;;;;23.73;13.40;;;;;;;-141.97;100.00;47899.66;4997611;28;20225;-88
2022/11/20 05:50:30;;;;;;;51.20;32.93;;;;;;;-141.97;100.00;47778.56;4998762;28;20257;-88
2022/11/20 05:52:59;;;;;;;42.87;26.67;;;;;;;-141.97;100.00;47888.13;4986688;28;20171;-86
2022/11/20 05:55:24;;;;;;;35.27;19.60;;;;;;;-141.97;100.00;47868.91;5012919;28;20158;-86
2022/11/20 05:57:51;;;;;;;28.23;16.97;;;;;;;-141.97;100.00;47768.94;4996673;28;20640;-86
2022/11/20 06:00:17;;;;;;;33.90;19.50;;;;;;;-141.97;100.00;47847.75;4977847;28;20167;-86
2022/11/20 06:02:42;;;;;;;60.73;36.40;;;;;;;-141.97;100.00;47772.78;4994074;28;20698;-87
2022/11/20 06:05:08;;;;;;;46.50;27.13;;;;;;;-141.97;100.00;47870.81;4995545;28;20655;-86
2022/11/20 06:07:33;;;;;;;34.03;20.13;;;;;;;-141.97;100.00;47876.59;4999786;28;20186;-86
2022/11/20 06:09:59;;;;;;;34.90;16.13;;;;;;;-141.97;100.00;47803.56;5013472;28;20179;-87
2022/11/20 06:12:24;;;;;;;32.67;19.63;;;;;;;-141.97;100.00;47792.03;5006006;28;20213;-88
2022/11/20 06:14:50;;;;;;;49.93;29.63;;;;;;;-141.97;100.00;47726.66;5015662;28;20305;-87
2022/11/20 06:17:15;;;;;;;69.57;36.80;;;;;;;-141.97;100.00;48041.91;5005577;28;20171;-85
2022/11/20 06:19:40;;;;;;;43.93;25.97;;;;;;;-141.97;100.00;47793.94;5013835;28;20209;-86
2022/11/20 06:22:06;;;;;;;49.27;28.30;;;;;;;-141.97;100.00;47728.59;5014207;28;20264;-84
2022/11/20 06:24:31;;;;;;;46.03;25.73;;;;;;;-141.97;100.00;47745.88;5022064;28;20206;-86
2022/11/20 06:26:56;;;;;;;37.20;21.27;;;;;;;-141.97;100.00;47753.56;4998935;28;20278;-86
2022/11/20 06:29:22;;;;;;;102.53;59.67;;;;;;;-141.97;100.00;47776.63;5019784;28;20174;-87
2022/11/20 06:31:47;;;;;;;77.50;43.40;;;;;;;-141.97;100.00;47968.88;5010345;28;20524;-87
2022/11/20 06:34:13;;;;;;;67.73;40.00;;;;;;;-141.97;100.00;47711.28;4996800;28;20181;-87
2022/11/20 06:36:38;;;;;;;92.97;62.20;;;;;;;-141.97;100.00;47832.38;4996410;28;20213;-85
2022/11/20 06:39:06;;;;;;;47.40;29.23;;;;;;;-141.97;100.00;47866.97;5013369;28;20237;-86
2022/11/20 06:41:32;;;;;;;98.30;51.03;;;;;;;-141.97;100.00;47761.25;4996430;28;20205;-86
2022/11/20 06:43:57;;;;;;;124.20;74.83;;;;;;;-141.97;100.00;47743.97;5013905;28;20194;-88
2022/11/20 06:46:22;;;;;;;79.53;45.97;;;;;;;-141.97;100.00;47803.56;5013335;28;20307;-87
2022/11/20 06:48:49;;;;;;;47.27;29.03;;;;;;;-141.97;100.00;47868.91;5017919;28;20166;-88
2022/11/20 06:51:15;;;;;;;88.10;49.23;;;;;;;-141.97;100.00;47863.13;5011289;28;20166;-88
2022/11/20 06:53:42;;;;;;;133.90;75.17;;;;;;;-141.97;100.00;47872.75;5011749;28;20256;-89
2022/11/20 06:56:10;;;;;;;115.20;65.43;;;;;;;-141.97;100.00;47876.59;5025909;28;20159;-88
2022/11/20 06:58:36;;;;;;;42.47;23.60;;;;;;;-141.97;100.00;47830.47;5017034;28;20173;-87
2022/11/20 07:01:13;;;;;;;92.17;52.13;;;;;;;-141.97;100.00;47861.22;5004107;28;20176;-87
2022/11/20 07:03:40;;;;;;;89.77;49.47;;;;;;;-141.97;100.00;47888.13;5023537;28;20172;-89
2022/11/20 07:06:06;;;;;;;51.17;26.50;;;;;;;-141.97;100.00;47726.66;4989961;28;20179;-88
2022/11/20 07:08:32;;;;;;;32.40;19.00;;;;;;;-141.97;100.00;47849.69;4985427;28;20190;-87
2022/11/20 07:11:00;;;;;;;31.50;17.93;;;;;;;-141.97;100.00;47845.84;5003749;28;20167;-88
2022/11/20 07:13:27;;;;;;;32.30;19.97;;;;;;;-141.97;99.94;47849.69;4997985;28;20215;-89
2022/11/20 07:15:52;;;;;;;22.93;10.63;;;;;;;-141.97;99.12;47722.81;4982331;28;20608;-87
2022/11/20 07:18:17;;;;;;;18.57;9.57;;;;;;;-141.97;98.00;47922.72;4980429;28;20167;-87
2022/11/20 07:20:43;;;;;;;19.27;10.47;;;;;;;-141.97;97.38;47857.38;4998618;28;20520;-89
2022/11/20 07:23:08;;;;;;;17.60;9.67;;;;;;;-141.97;96.67;47778.56;5001668;28;20152;-88
2022/11/20 07:25:34;;;;;;;30.77;16.43;;;;;;;-141.97;96.38;47818.94;5015006;28;20191;-87
2022/11/20 07:28:01;;;;;;;25.67;13.07;;;;;;;-141.97;95.68;47722.81;5010082;28;20178;-88
2022/11/20 07:30:28;;;;;;;16.73;10.00;;;;;;;-141.97;94.61;47868.91;5001702;28;20159;-88
2022/11/20 07:32:55;;;;;;;14.50;9.77;;;;;;;-141.97;94.02;47857.38;5016192;28;20160;-87
2022/11/20 07:35:21;;;;;;;28.40;11.80;;;;;;;-141.97;93.49;47874.69;4978633;28;20175;-88
2022/11/20 07:37:47;;;;;;;25.17;12.97;;;;;;;-141.97;93.02;47755.50;4995233;28;20266;-88
2022/11/20 07:40:16;;;;;;;21.10;12.67;;;;;;;-141.97;92.99;47780.47;4994568;28;20171;-87
2022/11/20 07:42:55;;;;;;;24.93;12.90;;;;;;;-141.97;93.07;47953.50;4977032;28;20317;-87
2022/11/20 07:45:23;;;;;;;18.47;10.03;;;;;;;-141.97;92.72;47999.63;4978467;28;20195;-87
2022/11/20 07:47:49;;;;;;;15.37;9.63;;;;;;;-141.97;92.44;47874.69;4995526;28;20170;-88
2022/11/20 07:50:15;;;;;;;22.57;12.50;;;;;;;-141.97;91.92;47842.00;4995281;28;20159;-87
2022/11/20 07:52:40;;;;;;;20.00;8.80;;;;;;;-141.97;91.95;47784.34;4994698;28;20767;-88
2022/11/20 07:55:07;;;;;;;16.37;9.90;;;;;;;-141.97;92.09;47845.84;4979025;28;20573;-88
2022/11/20 07:57:32;;;;;;;23.80;12.67;;;;;;;-141.97;91.46;47851.59;4994916;28;20179;-85
2022/11/20 07:59:57;;;;;;;22.07;10.17;;;;;;;-141.97;91.30;47865.06;5012537;28;20173;-87
2022/11/20 08:02:23;;;;;;;19.87;10.00;;;;;;;-141.97;91.09;47818.94;4995085;28;20685;-85
2022/11/20 08:04:48;;;;;;;20.90;9.67;;;;;;;-141.97;91.62;48011.16;4995222;28;20209;-87
2022/11/20 08:07:14;;;;;;;17.83;9.53;;;;;;;-141.97;91.72;47926.56;5016194;28;20350;-85
2022/11/20 08:09:39;;;;;;;87.00;37.07;;;;;;;-141.97;91.36;47763.19;4998870;28;20241;-85
2022/11/20 08:14:49;;;;;;;58.03;24.77;;;;;;;-141.97;91.16;47805.47;4993292;28;20250;-86
2022/11/20 08:17:14;;;;;;;38.20;17.67;;;;;;;-141.97;91.03;47797.78;4993125;28;20180;-86
2022/11/20 08:19:40;;;;;;;33.40;16.17;;;;;;;-141.97;90.58;47830.47;4993524;28;20171;-88
2022/11/20 08:22:05;;;;;;;23.83;12.57;;;;;;;-141.97;90.22;47872.75;4991090;28;20171;-87
2022/11/20 08:24:30;;;;;;;26.07;14.10;;;;;;;-141.97;89.84;47880.44;4994055;28;20209;-87
2022/11/20 08:26:59;;;;;;;29.37;15.30;;;;;;;-141.97;89.58;47855.44;4991962;28;20198;-87
2022/11/20 08:29:26;;;;;;;54.03;25.63;;;;;;;-141.97;88.97;47895.81;5008204;28;20195;-87
2022/11/20 08:31:52;;;;;;;30.73;18.20;;;;;;;-141.97;88.22;47728.59;5001631;28;20267;-87
2022/11/20 08:34:17;;;;;;;47.40;26.87;;;;;;;-141.97;87.62;47930.41;4992984;28;20678;-87
2022/11/20 08:36:43;;;;;;;31.77;16.53;;;;;;;-141.97;86.20;47803.56;5008147;28;20632;-87
2022/11/20 08:39:11;;;;;;;36.07;19.23;;;;;;;-141.97;86.24;48018.84;4992288;28;20172;-85
2022/11/20 08:41:37;;;;;;;25.80;15.70;;;;;;;-141.97;85.85;47955.41;4993102;28;20191;-85
2022/11/20 08:44:04;;;;;;;24.33;15.43;;;;;;;-141.97;84.61;47780.47;4993223;28;20274;-87
2022/11/20 08:46:41;;;;;;;28.63;17.50;;;;;;;-141.97;81.51;47895.81;4997879;28;20159;-86
2022/11/20 08:49:09;;;;;;;27.47;17.40;;;;;;;-141.97;80.57;47830.47;5003060;28;20197;-88
2022/11/20 08:51:36;;;;;;;33.53;18.03;;;;;;;-141.97;80.45;47751.66;4987142;28;20148;-89
2022/11/20 08:54:02;;;;;;;142.10;89.50;;;;;;;-141.97;81.75;47838.16;5006394;28;20206;-86
2022/11/20 08:56:27;;;;;;;154.27;101.13;;;;;;;-141.97;79.91;47815.09;5100588;23;20231;-83
2022/11/20 08:58:56;;;;;;;77.43;48.43;;;;;;;-141.97;77.25;47849.69;4999844;28;20179;-87
2022/11/20 09:01:23;;;;;;;25.43;15.33;;;;;;;-141.97;76.37;47724.75;4990721;28;20173;-86
2022/11/20 09:03:49;;;;;;;21.40;12.60;;;;;;;-141.97;75.35;47730.50;4990694;28;20190;-87
2022/11/20 09:06:15;;;;;;;17.53;10.23;;;;;;;-141.97;71.86;47780.47;4988758;28;20196;-87
2022/11/20 09:08:49;;;;;;;16.70;9.00;;;;;;;-141.97;69.79;47615.19;4985457;28;20211;-85
2022/11/20 09:11:14;;;;;;;13.60;8.40;;;;;;;-141.97;68.36;47899.66;4984587;28;20204;-87
2022/11/20 09:13:40;;;;;;;15.47;7.37;;;;;;;-141.97;67.32;47872.75;4971443;28;20180;-85
2022/11/20 09:16:08;;;;;;;11.53;6.23;;;;;;;-141.97;67.08;47786.25;4971667;28;20177;-85
2022/11/20 09:18:38;;;;;;;12.80;6.10;;;;;;;-141.97;67.13;47753.56;4970391;28;20196;-84
2022/11/20 09:21:06;;;;;;;12.90;5.93;;;;;;;-141.97;65.74;47757.41;4970046;28;20294;-85
2022/11/20 09:23:34;;;;;;;10.57;5.90;;;;;;;-141.97;66.48;47522.91;4970763;28;20200;-84
2022/11/20 09:26:09;;;;;;;12.60;5.50;;;;;;;-141.97;66.52;47795.88;4958503;28;20177;-85
2022/11/20 09:28:34;;;;;;;11.20;6.10;;;;;;;-141.97;65.53;47784.34;4972010;28;20241;-85
2022/11/20 09:30:59;;;;;;;11.60;4.90;;;;;;;-141.97;64.80;47803.56;4970674;28;20200;-86
2022/11/20 09:33:25;;;;;;;11.03;5.20;;;;;;;-141.97;65.58;47576.75;4956551;28;20180;-86
2022/11/20 09:35:51;;;;;;;8.63;4.93;;;;;;;-141.97;65.66;47799.72;4975112;28;20287;-85
2022/11/20 09:38:16;;;;;;;9.60;4.90;;;;;;;-141.97;65.76;47876.59;4975158;28;20229;-87
2022/11/20 09:40:53;;;;;;;12.20;5.17;;;;;;;-141.97;64.85;47911.19;4974559;28;20179;-86
2022/11/20 09:43:27;;;;;;;10.73;5.50;;;;;;;-141.97;63.24;47945.81;4982147;28;20317;-85
2022/11/20 09:46:20;;;;;;;14.50;5.30;;;;;;;-141.97;62.34;47743.97;4996786;28;20294;-85
2022/11/20 09:49:35;;;;;;;11.33;5.13;;;;;;;-141.97;60.90;47688.22;4994355;28;20187;-85
2022/11/20 09:52:13;;;;;;;9.67;5.13;;;;;;;-141.97;60.17;47722.81;4981792;28;20187;-86
2022/11/20 09:54:40;;;;;;;10.33;4.83;;;;;;;-141.97;60.24;47757.41;4981882;28;20186;-88
2022/11/20 09:57:14;;;;;;;11.47;5.70;;;;;;;-141.97;60.09;47784.34;4993508;28;20214;-86
2022/11/20 09:59:42;;;;;;;12.90;5.30;;;;;;;-141.97;60.24;47759.34;5020910;28;20229;-85
2022/11/20 10:02:23;;;;;;;13.47;5.17;;;;;;;-141.97;59.67;47728.59;4999244;28;20179;-84
2022/11/20 10:05:24;;;;;;;12.00;5.00;;;;;;;-141.97;58.58;47699.75;4997951;28;20205;-84
2022/11/20 10:08:02;;;;;;;9.67;4.90;;;;;;;-141.97;59.02;47713.22;4921702;29;20667;-85
2022/11/20 10:10:34;;;;;;;12.73;5.73;;;;;;;-141.97;59.14;47738.19;4916693;29;20567;-87
2022/11/20 10:13:13;;;;;;;10.30;5.87;;;;;;;-141.97;59.66;47726.66;4898791;29;20199;-84
2022/11/20 10:15:56;;;;;;;14.20;6.20;;;;;;;-141.97;60.36;47742.03;4896953;29;20178;-84
2022/11/20 10:18:54;;;;;;;13.87;6.03;;;;;;;-141.97;60.53;47715.13;4897405;29;20289;-87
2022/11/20 10:21:26;;;;;;;14.27;6.23;;;;;;;-141.97;60.84;47747.81;4881121;29;20254;-86
2022/11/20 10:23:51;;;;;;;15.53;6.13;;;;;;;-141.97;60.79;47747.81;4896808;29;20177;-85
2022/11/20 10:26:31;;;;;;;13.33;6.60;;;;;;;-141.97;59.78;47734.34;4881459;29;20730;-86
2022/11/20 10:29:16;;;;;;;10.60;6.20;;;;;;;-141.97;59.76;47718.97;4897606;29;20177;-85
2022/11/20 10:31:50;;;;;;;13.23;6.30;;;;;;;-141.97;59.94;47736.28;4881126;29;20694;-88
2022/11/20 10:34:29;;;;;;;10.30;5.93;;;;;;;-141.97;60.35;47695.91;4897556;29;20227;-86
2022/11/20 10:36:59;;;;;;;12.63;6.00;;;;;;;-141.97;61.30;47645.94;4897465;29;20190;-87
2022/11/20 10:39:35;;;;;;;11.73;5.93;;;;;;;-141.97;61.87;47734.34;4905175;29;20645;-86
2022/11/20 10:42:00;;;;;;;24.47;11.23;;;;;;;-141.97;62.43;47715.13;4897108;29;20826;-86
2022/11/20 10:47:16;;;;;;;18.10;7.00;;;;;;;-141.97;63.14;47776.63;4975408;28;20260;-86
2022/11/20 10:49:46;;;;;;;17.43;8.87;;;;;;;-141.97;63.56;47768.94;4977949;28;20523;-85
2022/11/20 10:52:20;;;;;;;16.60;8.57;;;;;;;-141.97;63.74;47740.13;4975065;28;20251;-85
2022/11/20 10:55:03;;;;;;;19.43;7.50;;;;;;;-141.97;63.40;47749.72;4974904;28;20168;-85
2022/11/20 10:57:54;;;;;;;13.97;6.83;;;;;;;-141.97;63.81;47740.13;4986446;28;20249;-85
2022/11/20 11:00:19;;;;;;;15.60;7.97;;;;;;;-141.97;63.96;47757.41;4994457;28;20191;-85
2022/11/20 11:02:53;;;;;;;14.80;9.90;;;;;;;-141.97;63.58;47736.28;4994187;28;20182;-85
2022/11/20 11:05:43;;;;;;;17.30;7.47;;;;;;;-141.97;63.94;47734.34;4993953;28;20195;-84
2022/11/20 11:08:19;;;;;;;21.10;8.93;;;;;;;-141.97;64.43;47778.56;4977261;28;20184;-84